Time;durP1;ratioP1;P1;durP2;ratioP2;P2;SDS_P1;SDS_P2;PMS_P1;PMS_P2;Temp;Humidity;BMP_temperature;BMP_pressure;BME280_temperature;BME280_humidity;BME280_pressure;Samples;Min_cycle;Max_cycle;Signal;HPM_P1;HPM_P2
2022/11/19 00:06:40;;;;;;;5.53;4.20;;;6.90;97.90;;;;;;21171340;28;20210;-70
2022/11/19 00:16:42;;;;;;;5.43;3.87;;;6.80;97.50;;;;;;21170161;28;20236;-70
2022/11/19 00:26:44;;;;;;;5.53;4.27;;;6.70;97.50;;;;;;21168559;28;20676;-70
2022/11/19 00:36:46;;;;;;;5.63;4.33;;;6.70;97.50;;;;;;21168914;28;20243;-69
2022/11/19 00:46:47;;;;;;;6.70;4.77;;;6.60;97.40;;;;;;21167723;28;20209;-68
2022/11/19 00:56:49;;;;;;;10.70;5.83;;;6.60;97.20;;;;;;21166622;28;20709;-68
2022/11/19 01:06:51;;;;;;;7.93;6.13;;;6.50;97.00;;;;;;21166550;28;20661;-70
2022/11/19 01:16:52;;;;;;;10.03;7.43;;;6.40;96.80;;;;;;21165602;28;20238;-69
2022/11/19 01:26:54;;;;;;;12.33;8.80;;;6.30;96.70;;;;;;21162986;28;20228;-69
2022/11/19 01:36:56;;;;;;;12.60;9.50;;;6.30;96.70;;;;;;21161832;28;20232;-68
2022/11/19 01:46:57;;;;;;;13.90;9.80;;;6.20;96.50;;;;;;21163606;28;20207;-69
2022/11/19 01:57:03;;;;;;;16.47;10.97;;;6.10;96.50;;;;;;21162977;28;20243;-69
2022/11/19 02:07:08;;;;;;;17.57;12.10;;;6.00;96.50;;;;;;21163017;28;20603;-68
2022/11/19 02:17:28;;;;;;;17.93;12.13;;;5.90;96.40;;;;;;21162972;28;20658;-69
2022/11/19 02:27:54;;;;;;;18.63;12.07;;;6.00;96.40;;;;;;21162131;28;20210;-69
2022/11/19 02:38:08;;;;;;;21.60;14.30;;;5.80;96.30;;;;;;21161737;28;20230;-68
2022/11/19 02:48:16;;;;;;;21.40;14.20;;;5.80;96.20;;;;;;21170034;28;20210;-68
2022/11/19 03:08:43;;;;;;;23.43;15.13;;;;;;;;;;21176319;28;20563;-69
2022/11/19 03:18:53;;;;;;;24.10;15.87;;;5.70;95.90;;;;;;21175966;28;20272;-70
2022/11/19 03:28:58;;;;;;;22.27;14.73;;;5.60;95.70;;;;;;21171137;27;20256;-71
2022/11/19 03:39:06;;;;;;;21.60;14.17;;;5.70;95.70;;;;;;21153685;28;20235;-70
2022/11/19 03:49:09;;;;;;;22.53;15.00;;;5.70;95.60;;;;;;21173041;28;20543;-72
2022/11/19 03:59:11;;;;;;;22.60;15.10;;;5.60;95.20;;;;;;21171450;28;20239;-72
2022/11/19 04:09:13;;;;;;;22.47;14.23;;;5.60;95.40;;;;;;21170950;28;20700;-73
2022/11/19 04:19:16;;;;;;;22.20;14.20;;;5.60;95.30;;;;;;21170557;28;20238;-72
2022/11/19 04:29:18;;;;;;;20.10;13.03;;;5.60;95.30;;;;;;21169320;28;20240;-73
2022/11/19 04:39:20;;;;;;;20.20;13.30;;;5.50;95.20;;;;;;21168362;28;20252;-72
2022/11/19 04:49:22;;;;;;;21.27;13.60;;;5.40;95.20;;;;;;21168112;28;20264;-72
2022/11/19 04:59:24;;;;;;;22.43;13.97;;;5.50;95.20;;;;;;21166537;28;20247;-73
2022/11/19 05:09:26;;;;;;;22.33;14.20;;;5.40;95.30;;;;;;21165654;28;20217;-72
2022/11/19 05:19:27;;;;;;;23.37;14.33;;;5.40;95.50;;;;;;21165745;28;20294;-72
2022/11/19 05:29:29;;;;;;;22.73;14.83;;;5.30;95.40;;;;;;21144730;28;20210;-72
2022/11/19 05:39:31;;;;;;;22.63;13.93;;;5.20;95.50;;;;;;21162247;28;20234;-72
2022/11/19 05:49:32;;;;;;;21.00;13.63;;;5.10;95.50;;;;;;21164066;28;20561;-72
2022/11/19 05:59:34;;;;;;;24.07;14.40;;;5.00;95.80;;;;;;21162877;28;20241;-72
2022/11/19 06:09:43;;;;;;;22.93;14.00;;;4.90;95.90;;;;;;21162725;28;20605;-71
2022/11/19 06:19:44;;;;;;;21.93;13.73;;;5.00;96.10;;;;;;21166024;28;20586;-71
2022/11/19 06:29:46;;;;;;;19.80;12.33;;;5.00;96.10;;;;;;21260048;27;20201;-72
2022/11/19 06:39:54;;;;;;;19.40;12.50;;;5.00;96.20;;;;;;21263353;27;20294;-72
2022/11/19 06:49:56;;;;;;;20.57;12.70;;;5.00;96.10;;;;;;21262791;27;20208;-71
2022/11/19 06:59:57;;;;;;;20.13;12.53;;;5.00;96.30;;;;;;21261357;27;20274;-72
2022/11/19 07:09:59;;;;;;;18.03;11.67;;;5.10;96.40;;;;;;21260037;27;20616;-71
2022/11/19 07:20:01;;;;;;;24.67;13.17;;;5.00;96.30;;;;;;21260392;27;20711;-72
2022/11/19 07:30:04;;;;;;;19.93;12.53;;;5.00;96.40;;;;;;21253069;27;20325;-70
2022/11/19 07:40:07;;;;;;;21.17;13.47;;;;;;;;;;21249660;27;20225;-71
2022/11/19 07:50:09;;;;;;;23.40;14.47;;;4.90;96.50;;;;;;21223329;27;20193;-72
2022/11/19 08:00:11;;;;;;;22.00;13.23;;;5.00;96.50;;;;;;21228821;27;20250;-71
2022/11/19 08:10:13;;;;;;;20.13;12.43;;;5.10;96.60;;;;;;21169986;28;20228;-71
2022/11/19 08:20:16;;;;;;;20.10;12.50;;;5.10;96.60;;;;;;21179999;27;20584;-72
2022/11/19 08:30:17;;;;;;;20.67;12.67;;;5.20;96.40;;;;;;21253530;27;20216;-73
2022/11/19 08:40:19;;;;;;;22.77;12.60;;;5.20;96.40;;;;;;21195989;27;20715;-72
2022/11/19 08:50:21;;;;;;;20.43;12.57;;;5.20;96.30;;;;;;21210759;27;20213;-72
2022/11/19 09:00:23;;;;;;;21.20;12.97;;;5.30;96.20;;;;;;21251140;27;20245;-71
2022/11/19 09:10:25;;;;;;;20.57;13.10;;;5.20;96.10;;;;;;21250930;27;20649;-71
2022/11/19 09:20:26;;;;;;;22.20;13.80;;;5.20;96.10;;;;;;21204940;27;20229;-71
2022/11/19 09:30:28;;;;;;;24.03;14.17;;;5.10;96.00;;;;;;21162165;28;20225;-71
2022/11/19 09:40:30;;;;;;;23.80;13.77;;;5.20;96.10;;;;;;21163767;28;20235;-71
2022/11/19 09:50:44;;;;;;;25.47;14.20;;;5.30;96.20;;;;;;21188024;27;20210;-71
2022/11/19 10:00:53;;;;;;;22.57;13.83;;;5.30;96.00;;;;;;21172694;27;20235;-69
2022/11/19 10:11:15;;;;;;;23.33;13.67;;;5.30;96.00;;;;;;21218742;28;20202;-72
2022/11/19 10:21:26;;;;;;;21.43;13.50;;;5.20;96.20;;;;;;21246928;28;20230;-73
2022/11/19 10:31:34;;;;;;;22.17;14.13;;;5.30;96.20;;;;;;21234642;27;20257;-72
2022/11/19 10:41:53;;;;;;;24.93;13.17;;;5.20;96.00;;;;;;21235198;28;20732;-69
2022/11/19 10:51:56;;;;;;;21.03;13.50;;;5.10;95.90;;;;;;21159592;28;20203;-75
2022/11/19 11:02:11;;;;;;;24.13;13.47;;;5.20;96.10;;;;;;21159193;28;20247;-72
2022/11/19 11:22:42;;;;;;;22.27;13.73;;;5.20;96.10;;;;;;21174647;28;20716;-68
2022/11/19 11:32:45;;;;;;;22.10;13.87;;;5.20;96.00;;;;;;21174455;28;20202;-67
2022/11/19 11:42:47;;;;;;;23.70;13.73;;;5.10;96.10;;;;;;21173274;28;20586;-71
2022/11/19 11:52:51;;;;;;;20.53;13.43;;;5.10;96.10;;;;;;21172258;28;20232;-74
2022/11/19 12:03:08;;;;;;;20.83;13.17;;;5.00;96.10;;;;;;21171649;28;20260;-71
2022/11/19 12:13:33;;;;;;;22.33;13.40;;;5.10;96.10;;;;;;21172106;28;20230;-70
2022/11/19 12:24:07;;;;;;;24.03;13.60;;;5.20;96.10;;;;;;21170023;28;20620;-69
2022/11/19 12:34:26;;;;;;;22.00;13.40;;;5.20;96.00;;;;;;21169757;28;20259;-69
2022/11/19 12:45:01;;;;;;;22.13;14.17;;;5.30;96.10;;;;;;21167937;28;20225;-70
2022/11/19 12:55:34;;;;;;;24.40;14.90;;;5.20;96.20;;;;;;21167446;28;20255;-68
2022/11/19 13:06:00;;;;;;;51.80;21.90;;;5.20;96.20;;;;;;21166376;28;20242;-70
2022/11/19 13:16:05;;;;;;;25.90;14.67;;;5.20;96.10;;;;;;21166190;28;20198;-64
2022/11/19 13:26:24;;;;;;;25.77;15.73;;;5.10;96.00;;;;;;21165105;28;20284;-67
2022/11/19 13:36:43;;;;;;;24.93;15.10;;;5.20;96.20;;;;;;21183027;27;20206;-69
2022/11/19 13:46:54;;;;;;;24.50;14.70;;;5.30;96.40;;;;;;21161052;28;20233;-71
2022/11/19 13:56:57;;;;;;;24.43;14.60;;;5.30;96.30;;;;;;21163040;28;20239;-78
2022/11/19 14:07:21;;;;;;;28.73;15.70;;;5.20;96.10;;;;;;21163815;28;20279;-83
2022/11/19 14:28:48;;;;;;;25.83;15.20;;;5.30;96.20;;;;;;21157219;28;20214;-75
2022/11/19 14:38:54;;;;;;;27.17;15.17;;;5.20;96.20;;;;;;21211395;27;20687;-74
2022/11/19 14:49:01;;;;;;;26.60;15.13;;;5.20;96.30;;;;;;21262744;27;20198;-73
2022/11/19 14:59:17;;;;;;;29.30;15.87;;;5.20;96.30;;;;;;21261727;27;20734;-67
2022/11/19 15:09:56;;;;;;;24.73;14.90;;;5.10;96.30;;;;;;21261063;27;20210;-70
2022/11/19 15:20:16;;;;;;;27.13;15.67;;;5.10;96.40;;;;;;21260196;27;20241;-71
2022/11/19 15:30:39;;;;;;;27.20;15.37;;;5.20;96.50;;;;;;21191499;27;20218;-72
2022/11/19 15:40:41;;;;;;;27.20;15.57;;;5.10;96.30;;;;;;21172258;28;20252;-71
2022/11/19 15:50:43;;;;;;;25.07;15.37;;;5.10;96.40;;;;;;21172297;28;20213;-76
2022/11/19 16:00:48;;;;;;;27.37;15.80;;;5.00;96.40;;;;;;21171815;28;20259;-69
2022/11/19 16:17:30;;;;;;;26.23;15.83;;;5.00;96.40;;;;;;21171261;28;20214;-75
2022/11/19 16:21:27;;;;;;;31.00;16.90;;;5.10;96.40;;;;;;21217217;27;20271;-73
2022/11/19 16:31:30;;;;;;;27.60;16.27;;;5.00;96.40;;;;;;21254718;27;20197;-73
2022/11/19 16:51:53;;;;;;;27.13;16.03;;;5.00;96.40;;;;;;21200995;27;20308;-73
2022/11/19 17:01:58;;;;;;;30.73;17.83;;;5.10;96.40;;;;;;21160907;28;20241;-72
2022/11/19 17:12:19;;;;;;;31.00;17.00;;;5.10;96.40;;;;;;21163857;28;20233;-71
2022/11/19 17:22:25;;;;;;;27.37;16.20;;;5.10;96.40;;;;;;21162781;28;20233;-73
2022/11/19 17:32:39;;;;;;;28.90;16.37;;;5.10;96.40;;;;;;21163731;28;20202;-73
2022/11/19 17:53:01;;;;;;;28.17;16.67;;;5.10;96.50;;;;;;21163628;28;20569;-72
2022/11/19 18:03:03;;;;;;;28.77;16.70;;;5.10;96.50;;;;;;21163197;28;20268;-73
2022/11/19 18:13:05;;;;;;;32.20;17.17;;;5.10;96.50;;;;;;21163248;28;20202;-73
2022/11/19 18:23:10;;;;;;;28.30;16.40;;;5.10;96.40;;;;;;21179987;28;20302;-72
2022/11/19 18:33:12;;;;;;;31.37;16.63;;;5.10;96.50;;;;;;21179463;28;20207;-69
2022/11/19 18:53:40;;;;;;;29.93;17.10;;;5.10;96.40;;;;;;21179778;27;20206;-69
2022/11/19 19:03:42;;;;;;;31.30;17.33;;;3.20;95.60;;;;;;21175115;28;20585;-70
2022/11/19 19:13:44;;;;;;;29.70;17.17;;;5.20;96.40;;;;;;21175535;28;20205;-69
2022/11/19 19:23:46;;;;;;;27.93;16.67;;;5.20;96.30;;;;;;21172749;28;20838;-71
2022/11/19 19:33:49;;;;;;;30.40;17.67;;;5.10;96.20;;;;;;21171681;28;20209;-68
2022/11/19 19:43:52;;;;;;;29.07;16.60;;;5.20;96.30;;;;;;21171106;28;20594;-67
2022/11/19 19:53:54;;;;;;;29.57;17.40;;;5.20;96.30;;;;;;21170449;28;20206;-68
2022/11/19 20:04:14;;;;;;;30.67;17.70;;;5.20;96.30;;;;;;21169663;28;20268;-67
2022/11/19 20:14:16;;;;;;;28.47;17.03;;;5.10;96.20;;;;;;21169048;28;20260;-66
2022/11/19 20:24:18;;;;;;;29.70;16.97;;;5.10;96.20;;;;;;21168027;28;20260;-68
2022/11/19 20:34:20;;;;;;;27.80;17.00;;;5.10;96.10;;;;;;21167090;28;20210;-65
2022/11/19 20:44:22;;;;;;;32.27;17.63;;;5.10;96.10;;;;;;21165413;28;20243;-67
2022/11/19 20:54:24;;;;;;;31.13;17.53;;;5.20;96.20;;;;;;21162045;27;20209;-70
2022/11/19 21:04:35;;;;;;;27.43;15.90;;;;;;;;;;21163387;28;20291;-69
2022/11/19 21:14:37;;;;;;;30.00;17.40;;;5.20;96.20;;;;;;21164428;28;20672;-68
2022/11/19 21:24:39;;;;;;;31.37;17.57;;;;;;;;;;21163176;28;20604;-68
2022/11/19 21:34:40;;;;;;;32.63;17.93;;;5.20;96.10;;;;;;21162688;28;20221;-69
2022/11/19 21:44:42;;;;;;;29.33;17.67;;;5.10;96.00;;;;;;21162269;28;20600;-67
2022/11/19 21:54:44;;;;;;;28.33;15.80;;;5.10;96.00;;;;;;21160974;28;20206;-69
2022/11/19 22:04:45;;;;;;;31.03;17.67;;;5.10;96.00;;;;;;21160836;28;20252;-68
2022/11/19 22:14:48;;;;;;;30.10;17.33;;;5.00;95.90;;;;;;21160925;28;20230;-70
2022/11/19 22:24:50;;;;;;;32.37;18.47;;;5.00;95.90;;;;;;21160131;28;20715;-66
2022/11/19 22:34:51;;;;;;;31.37;17.60;;;5.00;95.90;;;;;;21159606;28;20581;-67
2022/11/19 22:44:53;;;;;;;30.47;17.57;;;5.00;95.70;;;;;;21159604;28;20234;-66
2022/11/19 22:54:55;;;;;;;28.30;17.03;;;5.00;95.70;;;;;;21155384;28;20690;-66
2022/11/19 23:04:57;;;;;;;29.23;16.43;;;4.90;95.70;;;;;;21165429;28;20710;-67
2022/11/19 23:14:58;;;;;;;27.33;16.47;;;5.00;95.60;;;;;;21174225;28;20203;-66
2022/11/19 23:25:00;;;;;;;29.80;17.10;;;5.00;95.70;;;;;;21172870;28;20233;-66
2022/11/19 23:35:02;;;;;;;29.70;17.50;;;5.00;95.60;;;;;;21172373;28;20209;-68
2022/11/19 23:45:04;;;;;;;31.33;17.77;;;5.00;95.60;;;;;;21172981;28;20275;-66
2022/11/19 23:55:06;;;;;;;28.73;16.33;;;;;;;;;;21173052;28;20202;-68
